Time;durP1;ratioP1;P1;durP2;ratioP2;P2;SDS_P1;SDS_P2;PMS_P1;PMS_P2;Temp;Humidity;BMP_temperature;BMP_pressure;BME280_temperature;BME280_humidity;BME280_pressure;Samples;Min_cycle;Max_cycle;Signal;HPM_P1;HPM_P2
2022/07/02 00:00:21;;;;;;;10.57;9.47;;;14.00;99.90;;;;;;5010463;28;20299;-66
2022/07/02 00:02:52;;;;;;;13.33;10.10;;;13.90;99.90;;;;;;5012671;28;20663;-65
2022/07/02 00:05:22;;;;;;;12.90;10.07;;;13.80;99.90;;;;;;5010839;28;20611;-65
2022/07/02 00:07:50;;;;;;;10.13;8.97;;;14.00;99.90;;;;;;5010467;28;20223;-65
2022/07/02 00:10:18;;;;;;;9.87;8.87;;;13.90;99.90;;;;;;5010749;28;20286;-66
2022/07/02 00:12:47;;;;;;;10.40;9.27;;;13.80;99.90;;;;;;5014972;28;20651;-65
2022/07/02 00:15:15;;;;;;;10.43;8.73;;;13.80;99.90;;;;;;5026030;28;20655;-65
2022/07/02 00:17:43;;;;;;;11.40;9.57;;;13.80;99.90;;;;;;5011784;28;20255;-65
2022/07/02 00:20:11;;;;;;;9.97;8.93;;;13.60;99.90;;;;;;5011153;28;20295;-65
2022/07/02 00:22:40;;;;;;;10.53;9.43;;;13.50;99.90;;;;;;5012371;28;20232;-65
2022/07/02 00:25:08;;;;;;;9.90;8.60;;;13.50;99.90;;;;;;5011739;28;20196;-65
2022/07/02 00:27:37;;;;;;;10.70;9.17;;;13.50;99.90;;;;;;5013590;28;20236;-65
2022/07/02 00:30:06;;;;;;;12.03;9.30;;;13.50;99.90;;;;;;5010511;28;20224;-65
2022/07/02 00:32:35;;;;;;;10.60;9.17;;;13.50;99.90;;;;;;5011274;28;20208;-65
2022/07/02 00:35:08;;;;;;;10.23;9.20;;;13.50;99.90;;;;;;5011258;28;20286;-65
2022/07/02 00:37:38;;;;;;;10.30;8.50;;;13.50;99.90;;;;;;5011376;28;20203;-65
2022/07/02 00:40:06;;;;;;;9.83;8.83;;;13.60;99.90;;;;;;5001034;28;20266;-65
2022/07/02 00:42:35;;;;;;;9.60;8.53;;;13.50;99.90;;;;;;5012569;28;20638;-65
2022/07/02 00:45:02;;;;;;;9.83;8.43;;;13.50;99.90;;;;;;5011265;28;20274;-65
2022/07/02 00:47:31;;;;;;;11.10;8.37;;;13.50;99.90;;;;;;5012274;28;20200;-65
2022/07/02 00:49:58;;;;;;;11.23;7.20;;;13.50;99.90;;;;;;5011115;28;20819;-65
2022/07/02 00:52:25;;;;;;;8.27;7.30;;;13.50;99.90;;;;;;5020961;28;20659;-65
2022/07/02 00:54:52;;;;;;;10.63;7.67;;;13.50;99.90;;;;;;5024713;28;20300;-65
2022/07/02 00:57:20;;;;;;;10.10;6.67;;;13.50;99.90;;;;;;5011507;28;20671;-66
2022/07/02 00:59:47;;;;;;;8.63;7.70;;;13.60;99.90;;;;;;5013593;28;20235;-65
2022/07/02 01:02:16;;;;;;;10.03;7.87;;;13.50;99.90;;;;;;5012532;28;20255;-65
2022/07/02 01:04:46;;;;;;;11.13;7.83;;;13.40;99.90;;;;;;5011677;28;20694;-65
2022/07/02 01:07:14;;;;;;;9.63;7.67;;;13.30;99.90;;;;;;5012428;28;20204;-65
2022/07/02 01:12:28;;;;;;;8.57;7.67;;;13.50;99.90;;;;;;5012822;28;20246;-65
2022/07/02 01:14:56;;;;;;;9.47;8.00;;;13.50;99.90;;;;;;5013265;28;20500;-65
2022/07/02 01:17:23;;;;;;;11.70;7.40;;;13.40;99.90;;;;;;5022704;28;20620;-65
2022/07/02 01:19:52;;;;;;;8.60;7.70;;;13.40;99.90;;;;;;5013401;28;20240;-65
2022/07/02 01:22:22;;;;;;;8.37;7.40;;;13.30;99.90;;;;;;5011960;28;20205;-65
2022/07/02 01:24:51;;;;;;;10.83;8.53;;;13.30;99.90;;;;;;5010410;28;20212;-65
2022/07/02 01:27:18;;;;;;;8.77;7.93;;;13.30;99.90;;;;;;5012244;28;20217;-65
2022/07/02 01:29:45;;;;;;;11.13;7.60;;;13.40;99.90;;;;;;5008861;28;20228;-65
2022/07/02 01:32:12;;;;;;;8.53;7.63;;;13.30;99.90;;;;;;5011640;28;20204;-65
2022/07/02 01:34:41;;;;;;;8.37;7.57;;;13.30;99.90;;;;;;5011001;28;20228;-65
2022/07/02 01:37:09;;;;;;;9.77;7.67;;;13.20;99.90;;;;;;5007269;28;20266;-65
2022/07/02 01:39:39;;;;;;;9.03;7.87;;;12.90;99.90;;;;;;5018027;28;20204;-65
2022/07/02 01:42:07;;;;;;;8.70;7.80;;;12.80;99.90;;;;;;5011525;28;20247;-65
2022/07/02 01:44:35;;;;;;;9.13;7.33;;;13.00;99.90;;;;;;5021344;28;20279;-65
2022/07/02 01:47:04;;;;;;;9.80;7.03;;;12.80;99.90;;;;;;5015391;28;20663;-65
2022/07/02 01:49:31;;;;;;;8.77;6.97;;;12.80;99.90;;;;;;5012018;28;20232;-65
2022/07/02 01:51:58;;;;;;;9.07;6.97;;;12.80;99.90;;;;;;5009107;28;20287;-65
2022/07/02 01:54:25;;;;;;;7.47;6.20;;;12.80;99.90;;;;;;5015075;28;20200;-65
2022/07/02 01:56:54;;;;;;;6.10;5.50;;;12.90;99.90;;;;;;5013817;28;20656;-65
2022/07/02 01:59:21;;;;;;;9.30;5.80;;;12.80;99.90;;;;;;5015245;28;20228;-65
2022/07/02 02:01:48;;;;;;;6.47;5.50;;;12.90;99.90;;;;;;5014567;28;20287;-65
2022/07/02 02:04:15;;;;;;;8.63;5.17;;;12.80;99.90;;;;;;5015119;28;20238;-65
2022/07/02 02:06:42;;;;;;;7.43;5.27;;;12.70;99.90;;;;;;5015750;28;20212;-65
2022/07/02 02:09:10;;;;;;;7.40;5.57;;;12.70;99.90;;;;;;5012599;28;20232;-65
2022/07/02 02:11:37;;;;;;;7.83;5.67;;;12.70;99.90;;;;;;5014934;28;20247;-65
2022/07/02 02:14:06;;;;;;;9.50;5.73;;;12.70;99.90;;;;;;5014780;28;20259;-65
2022/07/02 02:16:33;;;;;;;8.90;6.43;;;12.70;99.90;;;;;;5014810;28;20231;-65
2022/07/02 02:19:01;;;;;;;8.47;6.07;;;12.60;99.90;;;;;;5013701;28;20258;-65
2022/07/02 02:21:30;;;;;;;8.17;6.70;;;12.60;99.90;;;;;;5015584;28;20208;-65
2022/07/02 02:23:58;;;;;;;8.20;7.00;;;12.60;99.90;;;;;;5014283;28;20196;-65
2022/07/02 02:26:25;;;;;;;8.77;6.60;;;12.50;99.90;;;;;;5014159;28;20232;-65
2022/07/02 02:28:52;;;;;;;8.80;7.07;;;12.60;99.90;;;;;;5013752;28;20738;-65
2022/07/02 02:31:21;;;;;;;8.37;6.77;;;12.70;99.90;;;;;;5014020;28;20267;-65
2022/07/02 02:33:48;;;;;;;8.90;6.87;;;12.60;99.90;;;;;;5013983;28;20295;-65
2022/07/02 02:36:15;;;;;;;8.93;6.90;;;12.70;99.90;;;;;;5015013;28;20247;-65
2022/07/02 02:38:42;;;;;;;10.47;7.27;;;12.60;99.90;;;;;;5016989;28;20224;-65
2022/07/02 02:41:09;;;;;;;10.33;7.20;;;12.60;99.90;;;;;;5030251;28;20228;-65
2022/07/02 02:43:37;;;;;;;15.27;7.77;;;12.50;99.90;;;;;;5014846;28;20204;-68
2022/07/02 02:46:06;;;;;;;12.63;7.37;;;12.40;99.90;;;;;;5014768;28;20204;-69
2022/07/02 02:48:35;;;;;;;14.73;7.37;;;12.20;99.90;;;;;;5017529;28;20598;-69
2022/07/02 02:51:02;;;;;;;8.90;7.20;;;12.30;99.90;;;;;;5014615;28;20297;-69
2022/07/02 02:53:29;;;;;;;10.17;6.93;;;12.20;99.90;;;;;;5012574;28;20255;-69
2022/07/02 02:55:56;;;;;;;7.80;7.10;;;12.10;99.90;;;;;;5013531;28;20243;-69
2022/07/02 02:58:23;;;;;;;8.37;7.47;;;12.10;99.90;;;;;;5011053;28;20200;-69
2022/07/02 03:00:50;;;;;;;8.67;7.77;;;12.10;99.90;;;;;;5013760;28;20723;-70
2022/07/02 03:03:16;;;;;;;7.83;6.83;;;12.20;99.90;;;;;;5014233;28;20211;-69
2022/07/02 03:05:45;;;;;;;11.43;7.37;;;12.30;99.90;;;;;;5017689;28;20283;-69
2022/07/02 03:08:12;;;;;;;9.50;7.57;;;12.40;99.90;;;;;;5013899;28;20309;-69
2022/07/02 03:10:40;;;;;;;10.67;7.60;;;12.20;99.90;;;;;;5014816;28;20690;-69
2022/07/02 03:13:07;;;;;;;8.20;6.83;;;12.10;99.90;;;;;;5021590;28;20209;-69
2022/07/02 03:15:34;;;;;;;8.90;7.00;;;12.20;99.90;;;;;;5014137;28;20197;-69
2022/07/02 03:18:00;;;;;;;7.97;6.90;;;12.20;99.90;;;;;;5013178;28;20279;-70
2022/07/02 03:20:28;;;;;;;8.80;7.13;;;12.30;99.90;;;;;;5019119;28;20551;-69
2022/07/02 03:22:56;;;;;;;9.20;6.97;;;12.30;99.90;;;;;;5011890;28;20251;-69
2022/07/02 03:25:23;;;;;;;7.63;6.40;;;12.40;99.90;;;;;;5013239;28;20279;-69
2022/07/02 03:27:50;;;;;;;11.47;6.90;;;12.40;99.90;;;;;;5006997;28;20260;-69
2022/07/02 03:30:17;;;;;;;9.30;6.60;;;12.30;99.90;;;;;;5013124;28;20224;-69
2022/07/02 03:32:44;;;;;;;9.67;7.47;;;12.40;99.90;;;;;;5014423;28;20243;-70
2022/07/02 03:35:11;;;;;;;8.67;6.80;;;12.60;99.90;;;;;;5014101;28;20200;-70
2022/07/02 03:37:38;;;;;;;8.00;7.00;;;12.60;99.90;;;;;;5012924;28;20292;-70
2022/07/02 03:40:08;;;;;;;7.37;6.53;;;12.70;99.90;;;;;;5009202;28;20239;-69
2022/07/02 03:42:36;;;;;;;9.00;6.13;;;12.70;99.90;;;;;;5009742;28;20250;-69
2022/07/02 03:45:03;;;;;;;8.97;6.60;;;12.70;99.90;;;;;;5013254;28;20205;-69
2022/07/02 03:47:30;;;;;;;7.20;6.30;;;12.90;99.90;;;;;;5010923;28;20255;-69
2022/07/02 03:49:57;;;;;;;9.83;6.73;;;12.80;99.90;;;;;;5011702;28;20236;-69
2022/07/02 03:52:24;;;;;;;9.37;6.33;;;12.70;99.90;;;;;;5012813;28;20275;-69
2022/07/02 03:54:51;;;;;;;6.33;5.70;;;12.90;99.90;;;;;;5010762;28;20287;-69
2022/07/02 03:57:20;;;;;;;8.67;5.50;;;12.70;99.90;;;;;;5011238;28;20363;-69
2022/07/02 03:59:47;;;;;;;5.60;5.10;;;13.00;99.90;;;;;;5013637;28;20255;-69
2022/07/02 04:02:13;;;;;;;6.47;5.60;;;13.10;99.90;;;;;;5012382;28;20492;-69
2022/07/02 04:04:40;;;;;;;8.53;5.50;;;13.20;99.90;;;;;;5013430;28;20624;-69
2022/07/02 04:07:07;;;;;;;6.23;5.53;;;13.30;99.90;;;;;;5012217;28;20258;-69
2022/07/02 04:09:34;;;;;;;8.77;5.67;;;13.30;99.90;;;;;;5025246;28;20239;-69
2022/07/02 04:12:01;;;;;;;7.57;5.20;;;13.30;99.90;;;;;;5012201;28;20267;-70
2022/07/02 04:14:30;;;;;;;7.00;5.27;;;14.80;99.90;;;;;;5011589;28;20699;-69
2022/07/02 04:16:57;;;;;;;7.30;5.27;;;15.50;99.90;;;;;;5011895;28;20713;-69
2022/07/02 04:19:24;;;;;;;6.27;5.10;;;15.90;99.90;;;;;;5011254;28;20228;-69
2022/07/02 04:21:51;;;;;;;6.63;4.53;;;16.90;99.90;;;;;;5012839;28;20228;-70
2022/07/02 04:24:18;;;;;;;6.00;4.17;;;17.70;99.90;;;;;;5012486;28;20647;-70
2022/07/02 04:26:45;;;;;;;7.35;4.65;;;17.80;99.90;;;;;;5012232;28;20197;-69
2022/07/02 04:29:12;;;;;;;11.85;4.30;;;18.10;99.90;;;;;;5011127;28;20663;-69
2022/07/02 04:31:40;;;;;;;6.10;3.90;;;17.70;99.90;;;;;;5012846;28;20248;-69
2022/07/02 04:34:07;;;;;;;4.88;3.90;;;16.40;99.90;;;;;;5007178;28;20192;-70
2022/07/02 04:36:34;;;;;;;5.45;3.90;;;15.10;99.90;;;;;;5013462;28;20259;-69
2022/07/02 04:39:02;;;;;;;9.32;4.25;;;14.60;99.90;;;;;;5010844;28;20259;-68
2022/07/02 04:41:30;;;;;;;7.47;4.40;;;14.50;99.90;;;;;;5008925;28;20258;-68
2022/07/02 04:43:57;;;;;;;18.13;10.82;;;15.10;99.90;;;;;;5012527;28;20548;-68
2022/07/02 04:46:24;;;;;;;8.63;5.78;;;14.50;99.90;;;;;;5011355;28;20266;-68
2022/07/02 04:48:53;;;;;;;10.52;4.88;;;14.50;99.90;;;;;;5011725;28;20244;-68
2022/07/02 04:51:20;;;;;;;9.55;4.15;;;14.30;99.90;;;;;;5024247;28;20274;-68
2022/07/02 04:53:47;;;;;;;7.28;4.50;;;14.40;99.90;;;;;;5012618;28;20201;-68
2022/07/02 04:56:14;;;;;;;7.07;4.53;;;14.30;99.90;;;;;;5012866;28;20200;-68
2022/07/02 04:58:40;;;;;;;8.87;4.07;;;14.50;99.90;;;;;;5009532;28;20677;-68
2022/07/02 05:01:08;;;;;;;5.90;3.95;;;14.40;99.90;;;;;;5003216;28;20247;-68
2022/07/02 05:03:35;;;;;;;5.07;4.17;;;14.60;99.90;;;;;;5008882;28;20219;-68
2022/07/02 05:06:03;;;;;;;5.53;3.83;;;14.10;99.90;;;;;;5012049;28;20200;-68
2022/07/02 05:08:30;;;;;;;13.50;4.50;;;14.30;99.90;;;;;;5010942;28;20284;-68
2022/07/02 05:10:57;;;;;;;6.67;4.00;;;14.30;99.90;;;;;;5011884;28;20220;-68
2022/07/02 05:13:24;;;;;;;5.33;3.87;;;14.90;99.90;;;;;;5011818;28;20609;-68
2022/07/02 05:15:51;;;;;;;7.60;4.10;;;15.30;99.90;;;;;;5010613;28;20280;-68
2022/07/02 05:18:18;;;;;;;7.23;3.57;;;16.50;99.90;;;;;;5010955;28;20197;-68
2022/07/02 05:20:46;;;;;;;5.97;4.03;;;16.50;99.90;;;;;;5015081;28;20575;-68
2022/07/02 05:23:14;;;;;;;3.90;3.60;;;15.80;99.90;;;;;;5010863;28;20647;-68
2022/07/02 05:25:41;;;;;;;5.82;3.60;;;15.60;99.90;;;;;;5009763;28;20291;-68
2022/07/02 05:28:08;;;;;;;7.43;4.03;;;15.60;99.90;;;;;;5011709;28;20287;-68
2022/07/02 05:30:35;;;;;;;6.63;4.05;;;15.70;99.90;;;;;;5010799;28;20232;-68
2022/07/02 05:33:02;;;;;;;5.28;3.75;;;15.90;99.90;;;;;;5011562;28;20205;-68
2022/07/02 05:35:29;;;;;;;4.65;4.18;;;16.10;99.90;;;;;;5010808;28;20251;-68
2022/07/02 05:37:56;;;;;;;4.28;3.88;;;16.30;99.90;;;;;;5011259;28;20204;-68
2022/07/02 05:40:24;;;;;;;5.82;3.70;;;16.60;99.90;;;;;;5010170;28;20197;-68
2022/07/02 05:42:51;;;;;;;10.23;3.72;;;16.50;99.90;;;;;;5009042;28;20422;-68
2022/07/02 05:45:18;;;;;;;5.10;3.92;;;16.80;99.90;;;;;;5007979;28;20270;-68
2022/07/02 05:47:45;;;;;;;12.05;4.43;;;17.10;99.90;;;;;;5010023;28;20240;-68
2022/07/02 05:50:12;;;;;;;7.13;3.70;;;18.30;99.90;;;;;;5010005;28;20243;-68
2022/07/02 05:52:40;;;;;;;5.85;3.40;;;18.60;99.90;;;;;;5011881;28;20637;-68
2022/07/02 05:55:07;;;;;;;7.32;3.50;;;18.20;99.90;;;;;;5015988;28;20212;-65
2022/07/02 05:57:36;;;;;;;8.38;3.30;;;18.30;99.90;;;;;;5011082;28;20295;-66
2022/07/02 06:00:04;;;;;;;5.13;3.00;;;18.70;99.90;;;;;;5010828;28;20549;-65
2022/07/02 06:02:31;;;;;;;7.95;3.15;;;18.20;99.90;;;;;;5008436;28;20196;-65
2022/07/02 06:04:58;;;;;;;4.10;3.38;;;17.60;99.90;;;;;;5011929;28;20209;-65
2022/07/02 06:07:39;;;;;;;5.88;3.42;;;17.40;99.90;;;;;;5011225;28;20209;-65
2022/07/02 06:10:07;;;;;;;5.20;3.17;;;17.70;99.90;;;;;;5000362;28;20201;-65
2022/07/02 06:12:37;;;;;;;9.55;7.15;;;17.60;99.90;;;;;;5008518;28;20275;-65
2022/07/02 06:15:05;;;;;;;6.57;4.10;;;17.70;99.90;;;;;;5010565;28;20204;-65
2022/07/02 06:17:32;;;;;;;5.13;3.25;;;17.70;99.90;;;;;;5011151;28;20251;-65
2022/07/02 06:19:59;;;;;;;5.03;2.92;;;17.50;99.90;;;;;;5008831;28;20232;-65
2022/07/02 06:22:26;;;;;;;4.63;3.15;;;17.70;99.90;;;;;;5010879;28;20205;-65
2022/07/02 06:24:55;;;;;;;6.18;3.35;;;17.60;99.90;;;;;;5008333;28;20204;-65
2022/07/02 06:27:22;;;;;;;7.75;3.20;;;17.50;99.90;;;;;;5011211;28;20209;-65
2022/07/02 06:29:51;;;;;;;3.30;2.90;;;17.60;99.90;;;;;;5011210;28;20208;-65
2022/07/02 06:32:18;;;;;;;2.88;2.60;;;17.40;99.90;;;;;;5013300;28;20266;-65
2022/07/02 06:34:45;;;;;;;6.03;2.75;;;17.40;99.90;;;;;;5017028;28;20287;-65
2022/07/02 06:37:14;;;;;;;3.38;2.83;;;17.50;99.90;;;;;;5017625;28;20272;-65
2022/07/02 06:39:41;;;;;;;2.90;2.70;;;17.50;99.90;;;;;;5014513;28;20569;-65
2022/07/02 06:42:22;;;;;;;4.38;2.80;;;17.60;99.90;;;;;;5015507;28;20606;-65
2022/07/02 06:44:52;;;;;;;4.00;2.55;;;17.60;99.90;;;;;;5013896;28;20680;-65
2022/07/02 06:47:19;;;;;;;3.85;2.97;;;17.90;99.90;;;;;;5011016;28;20192;-66
2022/07/02 06:49:46;;;;;;;4.10;2.67;;;17.80;99.90;;;;;;5008445;28;20216;-65
2022/07/02 06:52:13;;;;;;;3.90;2.60;;;17.90;99.90;;;;;;5015197;28;20302;-65
2022/07/02 06:54:41;;;;;;;6.32;2.53;;;18.00;99.90;;;;;;5012345;28;20249;-65
2022/07/02 06:57:08;;;;;;;5.38;2.40;;;18.10;99.90;;;;;;5014137;28;20239;-66
2022/07/02 06:59:35;;;;;;;4.00;1.98;;;18.10;99.90;;;;;;5015122;28;20204;-65
2022/07/02 07:02:05;;;;;;;4.50;2.08;;;18.20;99.90;;;;;;5011529;28;20239;-65
2022/07/02 07:04:34;;;;;;;6.93;3.03;;;18.30;99.90;;;;;;5019901;28;20204;-65
2022/07/02 07:07:05;;;;;;;3.33;2.55;;;18.30;99.90;;;;;;5016716;28;20205;-65
2022/07/02 07:09:34;;;;;;;5.72;2.45;;;18.40;99.90;;;;;;5019550;28;20250;-65
2022/07/02 07:12:01;;;;;;;4.65;2.28;;;18.50;99.90;;;;;;5018099;28;20247;-65
2022/07/02 07:14:29;;;;;;;6.40;2.22;;;18.40;99.90;;;;;;5011937;28;20205;-65
2022/07/02 07:16:56;;;;;;;4.20;2.00;;;18.50;99.90;;;;;;5013370;28;20196;-65
2022/07/02 07:19:25;;;;;;;3.40;2.17;;;18.60;99.40;;;;;;5015640;28;20204;-65
2022/07/02 07:21:53;;;;;;;5.25;2.35;;;18.70;99.90;;;;;;5013911;28;20623;-65
2022/07/02 07:24:20;;;;;;;4.18;1.95;;;18.70;94.60;;;;;;5014051;28;20260;-65
2022/07/02 07:26:46;;;;;;;2.13;1.80;;;18.60;95.80;;;;;;5019487;28;20246;-65
2022/07/02 07:29:14;;;;;;;2.47;2.05;;;18.80;93.30;;;;;;5012559;28;20283;-65
2022/07/02 07:31:42;;;;;;;5.18;1.58;;;18.90;94.20;;;;;;5014186;28;20341;-65
2022/07/02 07:34:10;;;;;;;3.88;1.92;;;19.00;92.10;;;;;;5014345;28;20248;-65
2022/07/02 07:36:38;;;;;;;2.50;1.75;;;19.00;90.80;;;;;;5014200;28;20208;-65
2022/07/02 07:39:06;;;;;;;2.60;1.83;;;19.10;90.90;;;;;;5027106;28;20203;-65
2022/07/02 07:41:33;;;;;;;1.98;1.50;;;19.20;91.20;;;;;;5016539;28;20196;-65
2022/07/02 07:44:01;;;;;;;4.43;1.88;;;19.30;85.80;;;;;;5012572;28;20737;-65
2022/07/02 07:46:28;;;;;;;2.53;1.80;;;19.30;88.50;;;;;;5013950;28;20208;-65
2022/07/02 07:48:56;;;;;;;3.47;2.03;;;19.40;87.00;;;;;;5012882;28;20208;-65
2022/07/02 07:51:23;;;;;;;2.63;1.52;;;19.50;88.90;;;;;;5013747;28;20318;-65
2022/07/02 07:53:51;;;;;;;1.98;1.60;;;19.50;74.20;;;;;;5011582;28;20255;-65
2022/07/02 07:56:18;;;;;;;4.13;1.90;;;19.50;76.40;;;;;;5013944;28;20603;-65
2022/07/02 07:58:46;;;;;;;3.65;1.52;;;19.60;75.60;;;;;;5012411;28;20244;-65
2022/07/02 08:01:13;;;;;;;4.72;1.65;;;19.80;73.00;;;;;;5012588;28;20450;-65
2022/07/02 08:03:40;;;;;;;2.30;1.38;;;19.80;70.20;;;;;;5010544;28;20209;-65
2022/07/02 08:06:07;;;;;;;2.20;1.70;;;19.90;70.10;;;;;;5014789;28;20263;-65
2022/07/02 08:08:35;;;;;;;1.90;1.45;;;20.00;65.30;;;;;;5010693;28;20259;-65
2022/07/02 08:11:03;;;;;;;4.28;1.80;;;20.10;62.70;;;;;;5003238;28;20407;-65
2022/07/02 08:13:30;;;;;;;3.20;2.10;;;20.10;64.90;;;;;;5006917;28;20664;-65
2022/07/02 08:15:57;;;;;;;2.47;1.50;;;20.20;57.40;;;;;;5002937;28;20701;-65
2022/07/02 08:18:24;;;;;;;2.10;1.90;;;20.30;56.90;;;;;;5011245;28;20193;-65
2022/07/02 08:20:51;;;;;;;1.75;1.45;;;20.10;54.90;;;;;;5014918;28;20207;-65
2022/07/02 08:23:18;;;;;;;3.63;1.63;;;20.20;56.50;;;;;;5010604;28;20270;-65
2022/07/02 08:25:45;;;;;;;4.95;1.52;;;20.30;54.40;;;;;;5009620;28;20212;-65
2022/07/02 08:28:14;;;;;;;4.15;1.75;;;20.40;50.20;;;;;;5011252;28;20200;-65
2022/07/02 08:30:41;;;;;;;2.80;1.40;;;20.40;50.60;;;;;;5004777;28;20197;-65
2022/07/02 08:33:08;;;;;;;2.85;1.40;;;20.50;45.50;;;;;;5004856;28;20674;-65
2022/07/02 08:35:35;;;;;;;3.10;1.40;;;20.50;46.90;;;;;;5013963;28;20197;-65
2022/07/02 08:38:02;;;;;;;1.67;1.42;;;20.50;51.30;;;;;;5012653;28;20289;-65
2022/07/02 08:40:30;;;;;;;3.60;1.58;;;20.70;50.00;;;;;;5008075;28;20201;-65
2022/07/02 08:42:59;;;;;;;1.60;1.50;;;20.80;50.80;;;;;;5024538;28;20666;-65
2022/07/02 08:45:31;;;;;;;3.70;1.58;;;21.00;48.50;;;;;;5003214;28;20301;-66
2022/07/02 08:48:02;;;;;;;3.25;1.60;;;21.20;45.40;;;;;;5007585;28;20244;-65
2022/07/02 08:50:38;;;;;;;4.28;1.70;;;21.40;46.00;;;;;;5009317;28;20200;-65
2022/07/02 08:53:07;;;;;;;5.82;1.75;;;21.70;39.60;;;;;;5016359;28;20748;-65
2022/07/02 08:55:36;;;;;;;2.42;1.38;;;22.20;36.90;;;;;;5008139;28;20737;-65
2022/07/02 08:58:04;;;;;;;2.65;1.15;;;22.40;30.60;;;;;;5008404;28;20247;-65
2022/07/02 09:00:33;;;;;;;3.35;1.35;;;22.40;26.20;;;;;;5008117;28;20232;-65
2022/07/02 09:03:00;;;;;;;3.53;1.40;;;22.90;25.70;;;;;;5007366;28;20216;-65
2022/07/02 09:05:29;;;;;;;2.15;1.10;;;22.80;23.20;;;;;;5009282;28;20204;-66
2022/07/02 09:07:57;;;;;;;4.32;1.42;;;23.30;24.40;;;;;;5009083;28;20212;-66
2022/07/02 09:10:25;;;;;;;4.90;1.20;;;23.60;21.40;;;;;;5008484;28;20267;-66
2022/07/02 09:12:53;;;;;;;2.08;1.15;;;23.90;20.30;;;;;;5005856;28;20876;-66
2022/07/02 09:15:20;;;;;;;1.15;1.10;;;24.20;22.20;;;;;;5007128;28;20210;-68
2022/07/02 09:17:49;;;;;;;2.00;1.27;;;24.20;21.50;;;;;;5008198;28;20262;-68
2022/07/02 09:20:16;;;;;;;2.42;0.93;;;24.60;17.70;;;;;;5005966;28;20243;-70
2022/07/02 09:22:45;;;;;;;3.17;1.02;;;25.20;18.50;;;;;;5007322;28;20252;-69
2022/07/02 09:25:16;;;;;;;3.20;1.48;;;25.10;16.50;;;;;;5014737;28;20205;-69
2022/07/02 09:27:44;;;;;;;1.65;1.05;;;24.90;15.80;;;;;;5014669;28;20290;-69
2022/07/02 09:30:16;;;;;;;2.20;1.25;;;25.40;16.70;;;;;;5018899;28;20235;-69
2022/07/02 09:32:45;;;;;;;2.95;1.30;;;25.20;13.60;;;;;;5003947;28;20332;-69
2022/07/02 09:35:22;;;;;;;3.40;0.95;;;25.20;15.50;;;;;;5006959;28;20549;-70
2022/07/02 09:37:50;;;;;;;1.73;1.10;;;24.70;11.60;;;;;;5006064;28;20644;-69
2022/07/02 09:40:20;;;;;;;3.75;1.30;;;25.40;15.40;;;;;;5003923;28;20224;-69
2022/07/02 09:42:48;;;;;;;2.97;1.17;;;26.00;12.80;;;;;;5007240;28;20200;-69
2022/07/02 09:45:17;;;;;;;2.50;1.15;;;26.00;12.10;;;;;;5003885;28;20236;-69
2022/07/02 09:47:48;;;;;;;2.28;1.33;;;25.80;12.90;;;;;;5002144;28;20215;-69
2022/07/02 09:50:16;;;;;;;2.83;1.40;;;26.10;11.70;;;;;;5004346;28;20318;-69
2022/07/02 09:52:52;;;;;;;3.25;1.27;;;26.10;9.80;;;;;;5010997;28;20307;-69
2022/07/02 09:55:23;;;;;;;4.53;1.60;;;26.30;9.90;;;;;;5006442;28;20836;-69
2022/07/02 09:57:51;;;;;;;2.47;1.20;;;26.40;10.10;;;;;;5009022;28;20215;-69
2022/07/02 10:00:19;;;;;;;2.92;1.33;;;26.10;9.90;;;;;;5006107;28;20208;-69
2022/07/02 10:02:50;;;;;;;2.53;1.83;;;25.90;9.80;;;;;;5005237;28;20298;-70
2022/07/02 10:05:24;;;;;;;2.13;1.35;;;25.90;9.80;;;;;;5007842;28;20263;-70
2022/07/02 10:07:54;;;;;;;2.50;1.13;;;25.90;11.70;;;;;;5010184;28;20219;-70
2022/07/02 10:10:28;;;;;;;3.88;1.48;;;26.70;14.40;;;;;;5009816;28;20211;-70
2022/07/02 10:12:57;;;;;;;3.72;1.42;;;26.90;10.10;;;;;;5012422;28;20228;-70
2022/07/02 10:15:25;;;;;;;2.95;1.20;;;27.00;9.80;;;;;;5011660;28;20237;-69
2022/07/02 10:17:55;;;;;;;1.40;1.13;;;26.60;8.90;;;;;;5011769;28;20212;-70
2022/07/02 10:20:23;;;;;;;1.88;1.48;;;26.20;7.60;;;;;;5009962;28;20200;-70
2022/07/02 10:22:50;;;;;;;2.05;1.13;;;26.10;9.10;;;;;;5009314;28;20211;-70
2022/07/02 10:25:20;;;;;;;3.15;1.63;;;26.00;9.20;;;;;;5007867;28;20208;-69
2022/07/02 10:27:47;;;;;;;4.05;1.58;;;25.80;8.40;;;;;;5008709;28;20232;-69
2022/07/02 10:30:15;;;;;;;1.38;1.27;;;25.50;10.30;;;;;;5009669;28;20212;-70
2022/07/02 10:32:50;;;;;;;1.60;1.42;;;25.10;10.40;;;;;;5008580;28;20675;-69
2022/07/02 10:35:18;;;;;;;2.60;1.30;;;26.00;11.60;;;;;;4987765;28;20613;-69
2022/07/02 10:37:45;;;;;;;1.80;1.20;;;26.10;10.80;;;;;;5008312;28;20300;-70
2022/07/02 10:40:19;;;;;;;5.95;1.95;;;26.70;7.40;;;;;;5007476;28;20291;-70
2022/07/02 10:42:48;;;;;;;1.45;1.20;;;26.20;6.60;;;;;;4989774;28;20629;-70
2022/07/02 10:45:17;;;;;;;3.85;1.48;;;26.20;6.90;;;;;;5010013;28;20223;-70
2022/07/02 10:47:55;;;;;;;2.92;1.33;;;25.50;5.30;;;;;;5002863;28;20205;-70
2022/07/02 10:50:26;;;;;;;2.50;1.50;;;25.70;9.20;;;;;;5008155;28;20284;-70
2022/07/02 10:52:53;;;;;;;1.75;1.38;;;25.20;7.50;;;;;;5011181;28;20670;-70
2022/07/02 10:55:29;;;;;;;2.22;1.80;;;25.30;14.00;;;;;;5013968;28;20560;-70
2022/07/02 10:57:58;;;;;;;3.17;1.50;;;25.00;12.20;;;;;;5010738;28;20207;-69
2022/07/02 11:00:32;;;;;;;2.97;1.60;;;24.70;11.80;;;;;;5003941;28;20211;-69
2022/07/02 11:03:10;;;;;;;1.73;1.60;;;24.80;17.70;;;;;;5012715;28;20617;-70
2022/07/02 11:05:56;;;;;;;1.60;1.27;;;25.40;13.00;;;;;;5011810;28;20235;-69
2022/07/02 11:08:49;;;;;;;4.97;1.58;;;25.70;11.00;;;;;;5011236;28;20199;-70
2022/07/02 11:11:21;;;;;;;1.40;1.30;;;26.00;13.10;;;;;;5010238;28;20209;-70
2022/07/02 11:13:50;;;;;;;1.48;1.33;;;25.30;10.70;;;;;;5012715;28;20256;-69
2022/07/02 11:16:23;;;;;;;2.13;1.17;;;25.50;10.20;;;;;;5018507;28;20211;-69
2022/07/02 11:18:50;;;;;;;1.40;1.30;;;26.40;8.50;;;;;;5012520;28;20201;-70
2022/07/02 11:21:19;;;;;;;1.80;1.20;;;26.40;7.80;;;;;;5014528;28;20200;-70
2022/07/02 11:23:46;;;;;;;1.65;1.25;;;26.40;6.20;;;;;;5013379;28;20270;-69
2022/07/02 11:26:20;;;;;;;5.00;1.42;;;26.60;5.80;;;;;;5009788;28;20199;-70
2022/07/02 11:28:47;;;;;;;1.27;1.17;;;26.50;4.80;;;;;;5012567;28;20623;-70
2022/07/02 11:31:15;;;;;;;1.33;1.10;;;26.30;5.30;;;;;;5006927;28;20204;-70
2022/07/02 11:33:53;;;;;;;2.50;1.50;;;27.10;6.30;;;;;;5006050;28;20314;-70
2022/07/02 11:36:20;;;;;;;1.52;1.33;;;27.30;6.90;;;;;;5010052;28;20243;-70
2022/07/02 11:38:49;;;;;;;2.03;1.55;;;26.30;7.00;;;;;;5010128;28;20196;-70
2022/07/02 11:41:23;;;;;;;4.82;1.50;;;27.20;3.40;;;;;;5011360;28;20216;-69
2022/07/02 11:43:52;;;;;;;66.60;9.48;;;27.40;5.70;;;;;;5011741;28;20231;-69
2022/07/02 11:46:21;;;;;;;41.35;7.30;;;27.50;6.60;;;;;;5012552;28;20213;-70
2022/07/02 11:48:48;;;;;;;3.28;1.65;;;27.90;6.20;;;;;;5014755;28;20699;-70
2022/07/02 11:51:16;;;;;;;3.65;1.52;;;28.60;6.30;;;;;;5011144;28;20296;-70
2022/07/02 11:53:43;;;;;;;2.65;1.40;;;27.90;2.40;;;;;;5010720;28;20228;-70
2022/07/02 11:56:11;;;;;;;1.00;0.90;;;28.10;3.60;;;;;;5009147;28;20251;-70
2022/07/02 11:58:44;;;;;;;2.28;1.35;;;27.70;1.10;;;;;;5011825;28;20267;-70
2022/07/02 12:01:22;;;;;;;2.67;1.17;;;28.10;2.60;;;;;;5005954;28;20635;-70
2022/07/02 12:03:50;;;;;;;2.03;1.13;;;28.30;2.70;;;;;;5009098;28;20224;-70
2022/07/02 12:06:17;;;;;;;1.33;1.23;;;28.00;2.60;;;;;;5009543;28;20208;-70
2022/07/02 12:08:44;;;;;;;1.55;1.30;;;27.80;1.40;;;;;;5015483;28;20207;-70
2022/07/02 12:11:12;;;;;;;2.90;1.27;;;27.50;1.40;;;;;;5014809;28;20206;-70
2022/07/02 12:13:40;;;;;;;2.05;1.42;;;27.30;1.30;;;;;;5012549;28;20240;-70
2022/07/02 12:16:13;;;;;;;2.78;1.50;;;27.90;3.00;;;;;;5009238;28;20280;-70
2022/07/02 12:18:40;;;;;;;1.25;1.15;;;28.20;2.90;;;;;;5007936;28;20681;-70
2022/07/02 12:21:12;;;;;;;1.30;1.20;;;28.50;1.00;;;;;;5011804;28;20612;-70
2022/07/02 12:23:47;;;;;;;1.65;1.05;;;28.10;1.00;;;;;;5015004;28;20584;-70
2022/07/02 12:26:23;;;;;;;2.13;1.15;;;28.00;1.40;;;;;;5004051;28;20262;-70
2022/07/02 12:31:49;;;;;;;1.30;1.20;;;28.50;1.00;;;;;;5010005;28;20681;-68
2022/07/02 12:34:18;;;;;;;3.95;1.50;;;28.80;1.00;;;;;;5010289;28;20230;-67
2022/07/02 12:36:52;;;;;;;2.55;1.20;;;28.40;1.00;;;;;;5015408;28;20204;-67
2022/07/02 12:39:20;;;;;;;1.55;1.30;;;28.40;1.00;;;;;;5009291;28;21900;-67
2022/07/02 12:41:47;;;;;;;1.52;1.30;;;28.00;1.00;;;;;;5014287;28;20237;-67
2022/07/02 12:44:19;;;;;;;2.05;1.15;;;28.50;1.00;;;;;;5009950;28;20211;-67
2022/07/02 12:46:50;;;;;;;1.27;1.20;;;28.70;1.30;;;;;;5009817;28;20220;-67
2022/07/02 12:49:19;;;;;;;1.00;1.00;;;28.80;1.00;;;;;;5014510;28;20236;-67
2022/07/02 12:51:54;;;;;;;1.15;1.15;;;28.50;1.00;;;;;;5016173;28;20208;-67
2022/07/02 12:54:21;;;;;;;4.15;1.67;;;28.00;1.00;;;;;;5008057;28;20640;-67
2022/07/02 12:56:48;;;;;;;1.52;1.10;;;28.50;1.00;;;;;;5010663;28;20208;-67
2022/07/02 12:59:16;;;;;;;1.50;1.20;;;28.80;1.00;;;;;;5010404;28;20291;-67